sensor_id;sensor_type;location;lat;lon;timestamp;P1;durP1;ratioP1;P2;durP2;ratioP2
60612;SDS011;46443;59.792;17.626;2023-09-19T00:02:01;11.40;;;4.93;;
60612;SDS011;46443;59.792;17.626;2023-09-19T00:04:30;8.00;;;5.18;;
60612;SDS011;46443;59.792;17.626;2023-09-19T00:06:57;8.50;;;4.93;;
60612;SDS011;46443;59.792;17.626;2023-09-19T00:09:23;7.53;;;4.60;;
60612;SDS011;46443;59.792;17.626;2023-09-19T00:11:52;9.30;;;4.80;;
60612;SDS011;46443;59.792;17.626;2023-09-19T00:14:18;9.87;;;5.13;;
60612;SDS011;46443;59.792;17.626;2023-09-19T00:16:45;11.83;;;5.40;;
60612;SDS011;46443;59.792;17.626;2023-09-19T00:19:11;9.20;;;4.93;;
60612;SDS011;46443;59.792;17.626;2023-09-19T00:21:39;7.70;;;4.77;;
60612;SDS011;46443;59.792;17.626;2023-09-19T00:24:06;8.30;;;5.90;;
60612;SDS011;46443;59.792;17.626;2023-09-19T00:26:34;9.87;;;5.53;;
60612;SDS011;46443;59.792;17.626;2023-09-19T00:29:00;9.60;;;5.10;;
60612;SDS011;46443;59.792;17.626;2023-09-19T00:31:33;9.03;;;5.60;;
60612;SDS011;46443;59.792;17.626;2023-09-19T00:33:59;10.67;;;5.50;;
60612;SDS011;46443;59.792;17.626;2023-09-19T00:36:29;10.60;;;5.10;;
60612;SDS011;46443;59.792;17.626;2023-09-19T00:38:55;10.37;;;5.63;;
60612;SDS011;46443;59.792;17.626;2023-09-19T00:41:21;9.47;;;5.77;;
60612;SDS011;46443;59.792;17.626;2023-09-19T00:43:47;10.80;;;5.60;;
60612;SDS011;46443;59.792;17.626;2023-09-19T00:46:18;10.30;;;5.50;;
60612;SDS011;46443;59.792;17.626;2023-09-19T00:48:44;8.85;;;5.32;;
60612;SDS011;46443;59.792;17.626;2023-09-19T00:51:11;10.13;;;5.60;;
60612;SDS011;46443;59.792;17.626;2023-09-19T00:53:39;14.00;;;5.67;;
60612;SDS011;46443;59.792;17.626;2023-09-19T00:56:05;14.07;;;6.23;;
60612;SDS011;46443;59.792;17.626;2023-09-19T00:58:32;11.17;;;6.47;;
60612;SDS011;46443;59.792;17.626;2023-09-19T01:00:58;12.50;;;6.67;;
60612;SDS011;46443;59.792;17.626;2023-09-19T01:03:25;10.90;;;6.73;;
60612;SDS011;46443;59.792;17.626;2023-09-19T01:05:51;12.57;;;6.60;;
60612;SDS011;46443;59.792;17.626;2023-09-19T01:08:17;11.63;;;6.83;;
60612;SDS011;46443;59.792;17.626;2023-09-19T01:10:52;12.77;;;6.90;;
60612;SDS011;46443;59.792;17.626;2023-09-19T01:13:22;10.60;;;6.50;;
60612;SDS011;46443;59.792;17.626;2023-09-19T01:24:32;16.47;;;7.20;;
60612;SDS011;46443;59.792;17.626;2023-09-19T01:29:46;14.70;;;7.67;;
60612;SDS011;46443;59.792;17.626;2023-09-19T01:32:16;12.80;;;7.37;;
60612;SDS011;46443;59.792;17.626;2023-09-19T01:34:50;11.33;;;7.30;;
60612;SDS011;46443;59.792;17.626;2023-09-19T01:37:18;11.37;;;7.17;;
60612;SDS011;46443;59.792;17.626;2023-09-19T01:39:49;13.27;;;7.47;;
60612;SDS011;46443;59.792;17.626;2023-09-19T01:42:35;13.13;;;7.57;;
60612;SDS011;46443;59.792;17.626;2023-09-19T01:47:32;15.03;;;8.03;;
60612;SDS011;46443;59.792;17.626;2023-09-19T01:50:23;12.67;;;7.17;;
60612;SDS011;46443;59.792;17.626;2023-09-19T01:52:53;12.03;;;7.77;;
60612;SDS011;46443;59.792;17.626;2023-09-19T01:55:20;11.77;;;7.83;;
60612;SDS011;46443;59.792;17.626;2023-09-19T02:00:29;14.13;;;8.97;;
60612;SDS011;46443;59.792;17.626;2023-09-19T02:02:56;15.67;;;8.67;;
60612;SDS011;46443;59.792;17.626;2023-09-19T02:05:23;15.83;;;9.10;;
60612;SDS011;46443;59.792;17.626;2023-09-19T02:07:49;14.93;;;9.00;;
60612;SDS011;46443;59.792;17.626;2023-09-19T02:10:15;14.57;;;8.60;;
60612;SDS011;46443;59.792;17.626;2023-09-19T02:12:42;16.07;;;8.70;;
60612;SDS011;46443;59.792;17.626;2023-09-19T02:15:08;14.87;;;8.80;;
60612;SDS011;46443;59.792;17.626;2023-09-19T02:17:34;18.47;;;9.33;;
60612;SDS011;46443;59.792;17.626;2023-09-19T02:20:00;20.10;;;10.30;;
60612;SDS011;46443;59.792;17.626;2023-09-19T02:22:27;20.20;;;9.90;;
60612;SDS011;46443;59.792;17.626;2023-09-19T02:24:54;16.87;;;10.30;;
60612;SDS011;46443;59.792;17.626;2023-09-19T02:27:23;19.02;;;9.73;;
60612;SDS011;46443;59.792;17.626;2023-09-19T02:29:49;16.87;;;10.23;;
60612;SDS011;46443;59.792;17.626;2023-09-19T02:32:16;18.87;;;10.33;;
60612;SDS011;46443;59.792;17.626;2023-09-19T02:34:43;20.50;;;10.37;;
60612;SDS011;46443;59.792;17.626;2023-09-19T02:37:10;19.73;;;10.67;;
60612;SDS011;46443;59.792;17.626;2023-09-19T02:39:38;19.27;;;10.07;;
60612;SDS011;46443;59.792;17.626;2023-09-19T02:42:04;15.60;;;10.33;;
60612;SDS011;46443;59.792;17.626;2023-09-19T02:44:30;17.07;;;11.40;;
60612;SDS011;46443;59.792;17.626;2023-09-19T02:46:57;22.50;;;11.27;;
60612;SDS011;46443;59.792;17.626;2023-09-19T02:49:23;17.77;;;11.43;;
60612;SDS011;46443;59.792;17.626;2023-09-19T02:51:50;17.57;;;10.83;;
60612;SDS011;46443;59.792;17.626;2023-09-19T02:54:16;17.60;;;11.87;;
60612;SDS011;46443;59.792;17.626;2023-09-19T02:56:43;18.13;;;10.60;;
60612;SDS011;46443;59.792;17.626;2023-09-19T02:59:09;21.57;;;12.07;;
60612;SDS011;46443;59.792;17.626;2023-09-19T03:01:35;21.67;;;11.53;;
60612;SDS011;46443;59.792;17.626;2023-09-19T03:04:03;19.77;;;12.17;;
60612;SDS011;46443;59.792;17.626;2023-09-19T03:06:33;22.23;;;12.73;;
60612;SDS011;46443;59.792;17.626;2023-09-19T03:08:59;20.30;;;12.13;;
60612;SDS011;46443;59.792;17.626;2023-09-19T03:11:25;23.53;;;13.93;;
60612;SDS011;46443;59.792;17.626;2023-09-19T03:13:52;25.10;;;13.57;;
60612;SDS011;46443;59.792;17.626;2023-09-19T03:16:18;23.80;;;14.10;;
60612;SDS011;46443;59.792;17.626;2023-09-19T03:18:47;19.77;;;12.47;;
60612;SDS011;46443;59.792;17.626;2023-09-19T03:21:16;23.83;;;13.93;;
60612;SDS011;46443;59.792;17.626;2023-09-19T03:23:43;21.00;;;13.50;;
60612;SDS011;46443;59.792;17.626;2023-09-19T03:26:12;25.93;;;13.67;;
60612;SDS011;46443;59.792;17.626;2023-09-19T03:28:42;25.38;;;14.13;;
60612;SDS011;46443;59.792;17.626;2023-09-19T03:31:08;20.13;;;13.00;;
60612;SDS011;46443;59.792;17.626;2023-09-19T03:33:35;29.53;;;16.50;;
60612;SDS011;46443;59.792;17.626;2023-09-19T03:36:01;25.10;;;15.50;;
60612;SDS011;46443;59.792;17.626;2023-09-19T03:38:31;24.50;;;14.23;;
60612;SDS011;46443;59.792;17.626;2023-09-19T03:40:58;27.57;;;16.00;;
60612;SDS011;46443;59.792;17.626;2023-09-19T03:43:24;34.07;;;17.53;;
60612;SDS011;46443;59.792;17.626;2023-09-19T03:45:50;27.57;;;17.20;;
60612;SDS011;46443;59.792;17.626;2023-09-19T03:48:19;27.37;;;16.50;;
60612;SDS011;46443;59.792;17.626;2023-09-19T03:50:47;27.17;;;16.67;;
60612;SDS011;46443;59.792;17.626;2023-09-19T03:53:13;26.77;;;16.63;;
60612;SDS011;46443;59.792;17.626;2023-09-19T03:55:39;23.93;;;15.10;;
60612;SDS011;46443;59.792;17.626;2023-09-19T03:58:05;22.57;;;14.00;;
60612;SDS011;46443;59.792;17.626;2023-09-19T04:00:31;27.53;;;16.50;;
60612;SDS011;46443;59.792;17.626;2023-09-19T04:02:59;24.60;;;15.30;;
60612;SDS011;46443;59.792;17.626;2023-09-19T04:05:27;30.70;;;15.67;;
60612;SDS011;46443;59.792;17.626;2023-09-19T04:07:53;27.80;;;16.17;;
60612;SDS011;46443;59.792;17.626;2023-09-19T04:10:19;31.27;;;16.53;;
60612;SDS011;46443;59.792;17.626;2023-09-19T04:12:55;28.60;;;16.03;;
60612;SDS011;46443;59.792;17.626;2023-09-19T04:15:21;28.57;;;17.47;;
60612;SDS011;46443;59.792;17.626;2023-09-19T04:17:48;26.00;;;17.30;;
60612;SDS011;46443;59.792;17.626;2023-09-19T04:20:14;31.37;;;17.43;;
60612;SDS011;46443;59.792;17.626;2023-09-19T04:22:41;28.97;;;15.87;;
60612;SDS011;46443;59.792;17.626;2023-09-19T04:25:07;25.30;;;16.17;;
60612;SDS011;46443;59.792;17.626;2023-09-19T04:27:33;26.70;;;16.53;;
60612;SDS011;46443;59.792;17.626;2023-09-19T04:29:59;23.57;;;15.67;;
60612;SDS011;46443;59.792;17.626;2023-09-19T04:32:34;31.73;;;16.47;;
60612;SDS011;46443;59.792;17.626;2023-09-19T04:35:03;32.20;;;17.30;;
60612;SDS011;46443;59.792;17.626;2023-09-19T04:37:31;28.77;;;16.97;;
60612;SDS011;46443;59.792;17.626;2023-09-19T04:39:58;30.00;;;16.87;;
60612;SDS011;46443;59.792;17.626;2023-09-19T04:42:24;24.00;;;15.60;;
60612;SDS011;46443;59.792;17.626;2023-09-19T04:44:50;30.00;;;16.83;;
60612;SDS011;46443;59.792;17.626;2023-09-19T04:47:18;28.87;;;15.63;;
60612;SDS011;46443;59.792;17.626;2023-09-19T04:49:44;29.57;;;17.37;;
60612;SDS011;46443;59.792;17.626;2023-09-19T04:52:10;30.60;;;18.40;;
60612;SDS011;46443;59.792;17.626;2023-09-19T04:54:36;27.13;;;16.80;;
60612;SDS011;46443;59.792;17.626;2023-09-19T04:57:03;26.17;;;17.10;;
60612;SDS011;46443;59.792;17.626;2023-09-19T04:59:31;33.47;;;18.83;;
60612;SDS011;46443;59.792;17.626;2023-09-19T05:01:57;27.10;;;16.03;;
60612;SDS011;46443;59.792;17.626;2023-09-19T05:04:23;29.30;;;16.97;;
60612;SDS011;46443;59.792;17.626;2023-09-19T05:06:49;26.53;;;16.37;;
60612;SDS011;46443;59.792;17.626;2023-09-19T05:09:16;25.00;;;17.60;;
60612;SDS011;46443;59.792;17.626;2023-09-19T05:11:44;26.37;;;16.83;;
60612;SDS011;46443;59.792;17.626;2023-09-19T05:14:11;30.87;;;17.30;;
60612;SDS011;46443;59.792;17.626;2023-09-19T05:16:37;25.83;;;17.30;;
60612;SDS011;46443;59.792;17.626;2023-09-19T05:19:03;27.03;;;17.70;;
60612;SDS011;46443;59.792;17.626;2023-09-19T05:21:32;33.70;;;18.17;;
60612;SDS011;46443;59.792;17.626;2023-09-19T05:23:58;29.73;;;17.80;;
60612;SDS011;46443;59.792;17.626;2023-09-19T05:26:24;26.83;;;16.43;;
60612;SDS011;46443;59.792;17.626;2023-09-19T05:28:50;27.47;;;17.00;;
60612;SDS011;46443;59.792;17.626;2023-09-19T05:31:18;28.60;;;17.33;;
60612;SDS011;46443;59.792;17.626;2023-09-19T05:33:44;28.03;;;16.63;;
60612;SDS011;46443;59.792;17.626;2023-09-19T05:36:10;27.77;;;16.47;;
60612;SDS011;46443;59.792;17.626;2023-09-19T05:38:36;25.50;;;16.80;;
60612;SDS011;46443;59.792;17.626;2023-09-19T05:41:05;26.87;;;16.30;;
60612;SDS011;46443;59.792;17.626;2023-09-19T05:43:33;36.33;;;18.40;;
60612;SDS011;46443;59.792;17.626;2023-09-19T05:46:00;29.90;;;18.30;;
60612;SDS011;46443;59.792;17.626;2023-09-19T05:48:26;28.83;;;17.57;;
60612;SDS011;46443;59.792;17.626;2023-09-19T05:50:52;29.90;;;18.07;;
60612;SDS011;46443;59.792;17.626;2023-09-19T05:53:18;31.37;;;18.57;;
60612;SDS011;46443;59.792;17.626;2023-09-19T05:55:44;32.43;;;18.47;;
60612;SDS011;46443;59.792;17.626;2023-09-19T05:58:10;25.60;;;17.67;;
60612;SDS011;46443;59.792;17.626;2023-09-19T06:00:39;28.30;;;16.95;;
60612;SDS011;46443;59.792;17.626;2023-09-19T06:03:08;29.08;;;18.33;;
60612;SDS011;46443;59.792;17.626;2023-09-19T06:05:34;29.00;;;17.60;;
60612;SDS011;46443;59.792;17.626;2023-09-19T06:08:00;25.97;;;17.53;;
60612;SDS011;46443;59.792;17.626;2023-09-19T06:10:32;27.55;;;17.33;;
60612;SDS011;46443;59.792;17.626;2023-09-19T06:13:00;27.42;;;16.85;;
60612;SDS011;46443;59.792;17.626;2023-09-19T06:15:29;28.20;;;17.23;;
60612;SDS011;46443;59.792;17.626;2023-09-19T06:17:57;24.90;;;16.80;;
60612;SDS011;46443;59.792;17.626;2023-09-19T06:20:25;27.83;;;17.33;;
60612;SDS011;46443;59.792;17.626;2023-09-19T06:22:51;26.67;;;16.50;;
60612;SDS011;46443;59.792;17.626;2023-09-19T06:25:17;29.48;;;17.00;;
60612;SDS011;46443;59.792;17.626;2023-09-19T06:27:50;24.35;;;16.48;;
60612;SDS011;46443;59.792;17.626;2023-09-19T06:30:18;24.35;;;15.82;;
60612;SDS011;46443;59.792;17.626;2023-09-19T06:32:44;25.00;;;17.02;;
60612;SDS011;46443;59.792;17.626;2023-09-19T06:35:14;27.42;;;16.33;;
60612;SDS011;46443;59.792;17.626;2023-09-19T06:37:41;31.25;;;18.10;;
60612;SDS011;46443;59.792;17.626;2023-09-19T06:40:08;29.23;;;17.13;;
60612;SDS011;46443;59.792;17.626;2023-09-19T06:45:09;25.73;;;17.00;;
60612;SDS011;46443;59.792;17.626;2023-09-19T06:47:42;24.67;;;18.20;;
60612;SDS011;46443;59.792;17.626;2023-09-19T06:50:10;25.80;;;17.90;;
60612;SDS011;46443;59.792;17.626;2023-09-19T06:52:42;24.90;;;16.30;;
60612;SDS011;46443;59.792;17.626;2023-09-19T06:55:08;23.38;;;16.05;;
60612;SDS011;46443;59.792;17.626;2023-09-19T06:57:36;23.05;;;16.80;;
60612;SDS011;46443;59.792;17.626;2023-09-19T07:00:03;22.42;;;16.10;;
60612;SDS011;46443;59.792;17.626;2023-09-19T07:02:34;28.65;;;17.13;;
60612;SDS011;46443;59.792;17.626;2023-09-19T07:05:01;24.40;;;16.10;;
60612;SDS011;46443;59.792;17.626;2023-09-19T07:07:27;22.13;;;15.68;;
60612;SDS011;46443;59.792;17.626;2023-09-19T07:09:54;25.80;;;15.73;;
60612;SDS011;46443;59.792;17.626;2023-09-19T07:12:20;22.25;;;16.23;;
60612;SDS011;46443;59.792;17.626;2023-09-19T07:14:46;26.02;;;17.30;;
60612;SDS011;46443;59.792;17.626;2023-09-19T07:17:12;25.88;;;16.23;;
60612;SDS011;46443;59.792;17.626;2023-09-19T07:19:43;26.05;;;17.17;;
60612;SDS011;46443;59.792;17.626;2023-09-19T07:22:10;21.83;;;15.48;;
60612;SDS011;46443;59.792;17.626;2023-09-19T07:24:36;21.08;;;14.38;;
60612;SDS011;46443;59.792;17.626;2023-09-19T07:27:03;28.50;;;16.17;;
60612;SDS011;46443;59.792;17.626;2023-09-19T07:29:30;23.75;;;15.65;;
60612;SDS011;46443;59.792;17.626;2023-09-19T07:31:56;26.27;;;16.73;;
60612;SDS011;46443;59.792;17.626;2023-09-19T07:34:22;22.63;;;15.95;;
60612;SDS011;46443;59.792;17.626;2023-09-19T07:36:49;20.83;;;15.18;;
60612;SDS011;46443;59.792;17.626;2023-09-19T07:39:15;20.90;;;15.02;;
60612;SDS011;46443;59.792;17.626;2023-09-19T07:41:41;27.98;;;16.75;;
60612;SDS011;46443;59.792;17.626;2023-09-19T07:44:07;21.10;;;14.98;;
60612;SDS011;46443;59.792;17.626;2023-09-19T07:46:35;23.33;;;15.90;;
60612;SDS011;46443;59.792;17.626;2023-09-19T07:49:01;23.00;;;15.68;;
60612;SDS011;46443;59.792;17.626;2023-09-19T07:51:27;23.60;;;15.30;;
60612;SDS011;46443;59.792;17.626;2023-09-19T07:53:54;22.23;;;15.38;;
60612;SDS011;46443;59.792;17.626;2023-09-19T07:56:20;22.75;;;15.20;;
60612;SDS011;46443;59.792;17.626;2023-09-19T07:58:47;25.02;;;16.08;;
60612;SDS011;46443;59.792;17.626;2023-09-19T08:01:13;22.02;;;15.05;;
60612;SDS011;46443;59.792;17.626;2023-09-19T08:03:41;19.92;;;14.30;;
60612;SDS011;46443;59.792;17.626;2023-09-19T08:06:08;22.73;;;14.52;;
60612;SDS011;46443;59.792;17.626;2023-09-19T08:08:34;20.90;;;14.98;;
60612;SDS011;46443;59.792;17.626;2023-09-19T08:11:02;20.40;;;14.57;;
60612;SDS011;46443;59.792;17.626;2023-09-19T08:13:29;22.90;;;14.63;;
60612;SDS011;46443;59.792;17.626;2023-09-19T08:15:56;20.88;;;14.82;;
60612;SDS011;46443;59.792;17.626;2023-09-19T08:18:22;19.40;;;14.18;;
60612;SDS011;46443;59.792;17.626;2023-09-19T08:20:51;18.45;;;14.07;;
60612;SDS011;46443;59.792;17.626;2023-09-19T08:23:18;17.13;;;13.93;;
60612;SDS011;46443;59.792;17.626;2023-09-19T08:25:45;19.38;;;13.60;;
60612;SDS011;46443;59.792;17.626;2023-09-19T08:28:12;19.25;;;13.88;;
60612;SDS011;46443;59.792;17.626;2023-09-19T08:30:42;21.25;;;14.45;;
60612;SDS011;46443;59.792;17.626;2023-09-19T08:33:08;18.98;;;12.88;;
60612;SDS011;46443;59.792;17.626;2023-09-19T08:35:35;19.63;;;13.25;;
60612;SDS011;46443;59.792;17.626;2023-09-19T08:38:03;17.75;;;14.15;;
60612;SDS011;46443;59.792;17.626;2023-09-19T08:40:32;18.17;;;12.32;;
60612;SDS011;46443;59.792;17.626;2023-09-19T08:42:58;17.52;;;12.63;;
60612;SDS011;46443;59.792;17.626;2023-09-19T08:45:25;19.73;;;12.75;;
60612;SDS011;46443;59.792;17.626;2023-09-19T08:50:33;19.48;;;13.73;;
60612;SDS011;46443;59.792;17.626;2023-09-19T08:53:05;19.98;;;12.77;;
60612;SDS011;46443;59.792;17.626;2023-09-19T08:55:33;18.90;;;12.25;;
60612;SDS011;46443;59.792;17.626;2023-09-19T08:58:01;17.95;;;12.63;;
60612;SDS011;46443;59.792;17.626;2023-09-19T09:00:29;17.67;;;12.30;;
60612;SDS011;46443;59.792;17.626;2023-09-19T09:02:56;19.85;;;12.43;;
60612;SDS011;46443;59.792;17.626;2023-09-19T09:05:23;17.58;;;11.77;;
60612;SDS011;46443;59.792;17.626;2023-09-19T09:07:50;13.15;;;10.82;;
60612;SDS011;46443;59.792;17.626;2023-09-19T09:10:17;16.65;;;12.68;;
60612;SDS011;46443;59.792;17.626;2023-09-19T09:12:43;17.50;;;11.98;;
60612;SDS011;46443;59.792;17.626;2023-09-19T09:15:09;20.55;;;12.50;;
60612;SDS011;46443;59.792;17.626;2023-09-19T09:17:37;15.07;;;11.10;;
60612;SDS011;46443;59.792;17.626;2023-09-19T09:20:04;14.15;;;11.23;;
60612;SDS011;46443;59.792;17.626;2023-09-19T09:22:35;14.85;;;11.60;;
60612;SDS011;46443;59.792;17.626;2023-09-19T09:25:05;17.15;;;10.85;;
60612;SDS011;46443;59.792;17.626;2023-09-19T09:27:31;16.67;;;11.07;;
60612;SDS011;46443;59.792;17.626;2023-09-19T09:29:59;14.85;;;10.52;;
60612;SDS011;46443;59.792;17.626;2023-09-19T09:32:26;16.58;;;10.70;;
60612;SDS011;46443;59.792;17.626;2023-09-19T09:37:20;13.60;;;9.57;;
60612;SDS011;46443;59.792;17.626;2023-09-19T09:39:55;16.38;;;10.52;;
60612;SDS011;46443;59.792;17.626;2023-09-19T09:42:36;15.40;;;10.35;;
60612;SDS011;46443;59.792;17.626;2023-09-19T09:45:13;13.38;;;8.75;;
60612;SDS011;46443;59.792;17.626;2023-09-19T09:47:46;12.23;;;9.00;;
60612;SDS011;46443;59.792;17.626;2023-09-19T09:50:29;10.40;;;8.48;;
60612;SDS011;46443;59.792;17.626;2023-09-19T09:53:04;12.63;;;8.93;;
60612;SDS011;46443;59.792;17.626;2023-09-19T09:55:56;12.02;;;7.88;;
60612;SDS011;46443;59.792;17.626;2023-09-19T09:58:23;10.57;;;8.05;;
60612;SDS011;46443;59.792;17.626;2023-09-19T10:00:54;10.25;;;7.75;;
60612;SDS011;46443;59.792;17.626;2023-09-19T10:03:42;13.30;;;8.88;;
60612;SDS011;46443;59.792;17.626;2023-09-19T10:06:12;12.88;;;8.55;;
60612;SDS011;46443;59.792;17.626;2023-09-19T10:09:01;11.20;;;8.07;;
60612;SDS011;46443;59.792;17.626;2023-09-19T10:11:39;9.75;;;7.65;;
60612;SDS011;46443;59.792;17.626;2023-09-19T10:16:35;9.55;;;6.97;;
60612;SDS011;46443;59.792;17.626;2023-09-19T10:19:02;9.07;;;6.63;;
60612;SDS011;46443;59.792;17.626;2023-09-19T10:21:31;10.07;;;7.00;;
60612;SDS011;46443;59.792;17.626;2023-09-19T10:24:00;8.70;;;6.65;;
60612;SDS011;46443;59.792;17.626;2023-09-19T10:26:29;9.55;;;6.28;;
60612;SDS011;46443;59.792;17.626;2023-09-19T10:28:56;7.97;;;5.65;;
60612;SDS011;46443;59.792;17.626;2023-09-19T10:31:24;8.40;;;6.40;;
60612;SDS011;46443;59.792;17.626;2023-09-19T10:33:51;7.65;;;6.07;;
60612;SDS011;46443;59.792;17.626;2023-09-19T10:36:20;10.43;;;6.20;;
60612;SDS011;46443;59.792;17.626;2023-09-19T10:38:47;7.25;;;5.20;;
60612;SDS011;46443;59.792;17.626;2023-09-19T10:41:14;7.35;;;5.60;;
60612;SDS011;46443;59.792;17.626;2023-09-19T10:43:42;8.30;;;5.85;;
60612;SDS011;46443;59.792;17.626;2023-09-19T10:46:09;7.45;;;5.70;;
60612;SDS011;46443;59.792;17.626;2023-09-19T10:48:37;9.00;;;5.63;;
60612;SDS011;46443;59.792;17.626;2023-09-19T10:51:08;7.05;;;5.43;;
60612;SDS011;46443;59.792;17.626;2023-09-19T10:53:54;7.15;;;5.20;;
60612;SDS011;46443;59.792;17.626;2023-09-19T10:56:23;6.95;;;5.10;;
60612;SDS011;46443;59.792;17.626;2023-09-19T10:58:53;6.85;;;4.88;;
60612;SDS011;46443;59.792;17.626;2023-09-19T11:01:43;7.05;;;4.78;;
60612;SDS011;46443;59.792;17.626;2023-09-19T11:09:49;6.53;;;3.88;;
60612;SDS011;46443;59.792;17.626;2023-09-19T11:14:50;5.68;;;3.50;;
60612;SDS011;46443;59.792;17.626;2023-09-19T11:30:43;4.82;;;2.13;;
60612;SDS011;46443;59.792;17.626;2023-09-19T11:33:22;4.32;;;2.17;;
60612;SDS011;46443;59.792;17.626;2023-09-19T11:43:52;3.17;;;2.08;;
60612;SDS011;46443;59.792;17.626;2023-09-19T11:46:24;2.53;;;1.80;;
60612;SDS011;46443;59.792;17.626;2023-09-19T11:48:50;3.05;;;1.80;;
60612;SDS011;46443;59.792;17.626;2023-09-19T11:51:21;3.75;;;1.73;;
60612;SDS011;46443;59.792;17.626;2023-09-19T11:53:49;4.13;;;1.90;;
60612;SDS011;46443;59.792;17.626;2023-09-19T11:56:16;2.95;;;1.92;;
60612;SDS011;46443;59.792;17.626;2023-09-19T11:58:43;4.20;;;1.85;;
60612;SDS011;46443;59.792;17.626;2023-09-19T12:01:11;3.65;;;1.85;;
60612;SDS011;46443;59.792;17.626;2023-09-19T12:03:45;3.58;;;1.80;;
60612;SDS011;46443;59.792;17.626;2023-09-19T12:06:13;3.30;;;1.60;;
60612;SDS011;46443;59.792;17.626;2023-09-19T12:08:41;4.50;;;1.85;;
60612;SDS011;46443;59.792;17.626;2023-09-19T12:11:11;2.83;;;1.70;;
60612;SDS011;46443;59.792;17.626;2023-09-19T12:13:41;4.18;;;1.80;;
60612;SDS011;46443;59.792;17.626;2023-09-19T12:16:13;5.07;;;1.90;;
60612;SDS011;46443;59.792;17.626;2023-09-19T12:18:40;2.42;;;1.60;;
60612;SDS011;46443;59.792;17.626;2023-09-19T12:21:26;2.97;;;1.70;;
60612;SDS011;46443;59.792;17.626;2023-09-19T12:23:57;2.72;;;1.50;;
60612;SDS011;46443;59.792;17.626;2023-09-19T12:26:23;3.80;;;1.77;;
60612;SDS011;46443;59.792;17.626;2023-09-19T12:28:49;4.10;;;1.50;;
60612;SDS011;46443;59.792;17.626;2023-09-19T12:31:17;3.05;;;1.50;;
60612;SDS011;46443;59.792;17.626;2023-09-19T12:33:44;3.15;;;1.60;;
60612;SDS011;46443;59.792;17.626;2023-09-19T12:36:20;2.85;;;1.70;;
60612;SDS011;46443;59.792;17.626;2023-09-19T12:38:54;3.58;;;1.60;;
60612;SDS011;46443;59.792;17.626;2023-09-19T12:41:20;3.65;;;1.70;;
60612;SDS011;46443;59.792;17.626;2023-09-19T12:43:47;3.28;;;1.70;;
60612;SDS011;46443;59.792;17.626;2023-09-19T12:46:13;5.78;;;1.88;;
60612;SDS011;46443;59.792;17.626;2023-09-19T12:48:40;2.95;;;1.50;;
60612;SDS011;46443;59.792;17.626;2023-09-19T12:51:11;4.35;;;1.67;;
60612;SDS011;46443;59.792;17.626;2023-09-19T12:53:38;3.67;;;1.65;;
60612;SDS011;46443;59.792;17.626;2023-09-19T12:58:35;3.47;;;1.52;;
60612;SDS011;46443;59.792;17.626;2023-09-19T13:01:14;3.58;;;1.63;;
60612;SDS011;46443;59.792;17.626;2023-09-19T13:03:41;3.60;;;1.67;;
60612;SDS011;46443;59.792;17.626;2023-09-19T13:06:07;3.83;;;1.50;;
60612;SDS011;46443;59.792;17.626;2023-09-19T13:08:35;3.92;;;1.60;;
60612;SDS011;46443;59.792;17.626;2023-09-19T13:11:10;2.67;;;1.42;;
60612;SDS011;46443;59.792;17.626;2023-09-19T13:13:44;4.55;;;1.80;;
60612;SDS011;46443;59.792;17.626;2023-09-19T13:16:13;4.38;;;1.90;;
60612;SDS011;46443;59.792;17.626;2023-09-19T13:18:58;3.28;;;1.70;;
60612;SDS011;46443;59.792;17.626;2023-09-19T13:21:28;4.60;;;1.70;;
60612;SDS011;46443;59.792;17.626;2023-09-19T13:23:54;3.67;;;1.80;;
60612;SDS011;46443;59.792;17.626;2023-09-19T13:26:27;4.78;;;1.88;;
60612;SDS011;46443;59.792;17.626;2023-09-19T13:28:56;3.78;;;1.75;;
60612;SDS011;46443;59.792;17.626;2023-09-19T13:31:22;3.50;;;1.52;;
60612;SDS011;46443;59.792;17.626;2023-09-19T13:33:49;3.30;;;1.70;;
60612;SDS011;46443;59.792;17.626;2023-09-19T13:36:17;4.13;;;1.70;;
60612;SDS011;46443;59.792;17.626;2023-09-19T13:38:43;3.80;;;1.70;;
60612;SDS011;46443;59.792;17.626;2023-09-19T13:41:10;4.47;;;1.92;;
60612;SDS011;46443;59.792;17.626;2023-09-19T13:43:36;3.72;;;1.70;;
60612;SDS011;46443;59.792;17.626;2023-09-19T13:46:04;6.35;;;1.90;;
60612;SDS011;46443;59.792;17.626;2023-09-19T13:48:30;4.57;;;1.90;;
60612;SDS011;46443;59.792;17.626;2023-09-19T13:50:56;4.47;;;1.90;;
60612;SDS011;46443;59.792;17.626;2023-09-19T13:53:22;3.90;;;1.77;;
60612;SDS011;46443;59.792;17.626;2023-09-19T13:55:50;4.22;;;1.90;;
60612;SDS011;46443;59.792;17.626;2023-09-19T13:58:16;4.38;;;1.98;;
60612;SDS011;46443;59.792;17.626;2023-09-19T14:00:42;4.05;;;2.03;;
60612;SDS011;46443;59.792;17.626;2023-09-19T14:03:09;5.05;;;1.75;;
60612;SDS011;46443;59.792;17.626;2023-09-19T14:05:36;3.95;;;1.80;;
60612;SDS011;46443;59.792;17.626;2023-09-19T14:08:02;2.75;;;1.73;;
60612;SDS011;46443;59.792;17.626;2023-09-19T14:10:29;3.92;;;1.50;;
60612;SDS011;46443;59.792;17.626;2023-09-19T14:12:56;3.63;;;1.60;;
60612;SDS011;46443;59.792;17.626;2023-09-19T14:15:24;4.17;;;1.70;;
60612;SDS011;46443;59.792;17.626;2023-09-19T14:17:55;3.93;;;2.00;;
60612;SDS011;46443;59.792;17.626;2023-09-19T14:20:21;3.10;;;1.50;;
60612;SDS011;46443;59.792;17.626;2023-09-19T14:22:48;2.93;;;1.70;;
60612;SDS011;46443;59.792;17.626;2023-09-19T14:25:14;4.97;;;1.80;;
60612;SDS011;46443;59.792;17.626;2023-09-19T14:27:40;5.27;;;1.53;;
60612;SDS011;46443;59.792;17.626;2023-09-19T14:30:07;3.90;;;1.47;;
60612;SDS011;46443;59.792;17.626;2023-09-19T14:32:34;6.27;;;1.60;;
60612;SDS011;46443;59.792;17.626;2023-09-19T14:35:02;4.87;;;2.00;;
60612;SDS011;46443;59.792;17.626;2023-09-19T14:37:28;3.50;;;1.50;;
60612;SDS011;46443;59.792;17.626;2023-09-19T14:39:54;3.77;;;1.40;;
60612;SDS011;46443;59.792;17.626;2023-09-19T14:42:21;5.07;;;1.43;;
60612;SDS011;46443;59.792;17.626;2023-09-19T14:44:47;1.43;;;1.10;;
60612;SDS011;46443;59.792;17.626;2023-09-19T14:47:15;3.30;;;1.33;;
60612;SDS011;46443;59.792;17.626;2023-09-19T14:49:41;2.40;;;1.40;;
60612;SDS011;46443;59.792;17.626;2023-09-19T14:52:08;3.37;;;1.60;;
60612;SDS011;46443;59.792;17.626;2023-09-19T14:54:34;4.17;;;1.53;;
60612;SDS011;46443;59.792;17.626;2023-09-19T14:57:02;2.47;;;1.57;;
60612;SDS011;46443;59.792;17.626;2023-09-19T14:59:32;3.07;;;1.50;;
60612;SDS011;46443;59.792;17.626;2023-09-19T15:02:05;2.50;;;1.37;;
60612;SDS011;46443;59.792;17.626;2023-09-19T15:04:31;1.77;;;1.38;;
60612;SDS011;46443;59.792;17.626;2023-09-19T15:06:57;2.83;;;1.30;;
60612;SDS011;46443;59.792;17.626;2023-09-19T15:09:23;4.10;;;1.10;;
60612;SDS011;46443;59.792;17.626;2023-09-19T15:11:54;4.00;;;1.40;;
60612;SDS011;46443;59.792;17.626;2023-09-19T15:14:20;3.47;;;1.50;;
60612;SDS011;46443;59.792;17.626;2023-09-19T15:16:47;2.83;;;1.23;;
60612;SDS011;46443;59.792;17.626;2023-09-19T15:19:13;3.37;;;1.50;;
60612;SDS011;46443;59.792;17.626;2023-09-19T15:21:40;3.80;;;1.67;;
60612;SDS011;46443;59.792;17.626;2023-09-19T15:24:07;2.73;;;1.60;;